createdAt,value
2023-04-24T00:01:27.988Z,99812.78
2023-04-24T00:03:55.277Z,99813.63
2023-04-24T00:06:24.666Z,99812.75
2023-04-24T00:08:51.682Z,99815.34
2023-04-24T00:11:19.119Z,99809.28
2023-04-24T00:13:46.201Z,99812.66
2023-04-24T00:16:13.260Z,99815.19
2023-04-24T00:18:40.779Z,99809.16
2023-04-24T00:21:08.100Z,99818.59
2023-04-24T00:23:35.112Z,99809.06
2023-04-24T00:26:02.069Z,99812.50
2023-04-24T00:28:29.270Z,99816.72
2023-04-24T00:30:57.726Z,99814.97
2023-04-24T00:33:24.746Z,99815.84
2023-04-24T00:35:52.148Z,99818.38
2023-04-24T00:38:19.478Z,99812.41
2023-04-24T00:40:48.622Z,99816.72
2023-04-24T00:43:15.623Z,99817.56
2023-04-24T00:45:42.500Z,99817.53
2023-04-24T00:48:09.685Z,99811.53
2023-04-24T00:50:37.479Z,99815.88
2023-04-24T00:53:04.572Z,99817.63
2023-04-24T00:55:32.731Z,99815.88
2023-04-24T00:57:59.787Z,99814.16
2023-04-24T01:00:26.708Z,99812.38
2023-04-24T01:02:54.603Z,99814.91
2023-04-24T01:05:21.852Z,99819.22
2023-04-24T01:07:50.132Z,99810.66
2023-04-24T01:10:18.855Z,99811.50
2023-04-24T01:12:46.679Z,99814.13
2023-04-24T01:15:13.613Z,99805.53
2023-04-24T01:17:43.088Z,99804.69
2023-04-24T01:20:10.594Z,99811.53
2023-04-24T01:22:37.749Z,99802.09
2023-04-24T01:25:05.144Z,99804.72
2023-04-24T01:27:33.543Z,99801.31
2023-04-24T01:30:01.081Z,99797.00
2023-04-24T01:32:33.562Z,99796.13
2023-04-24T01:35:00.587Z,99796.09
2023-04-24T01:37:28.004Z,99802.03
2023-04-24T01:39:55.178Z,99799.34
2023-04-24T01:42:22.377Z,99806.13
2023-04-24T01:44:49.404Z,99800.88
2023-04-24T01:47:16.518Z,99805.09
2023-04-24T01:49:43.831Z,99809.19
2023-04-24T01:52:13.301Z,99815.00
2023-04-24T01:54:40.380Z,99807.00
2023-04-24T01:57:07.365Z,99814.69
2023-04-24T01:59:34.599Z,99811.22
2023-04-24T02:02:01.637Z,99820.56
2023-04-24T02:04:28.910Z,99808.28
2023-04-24T02:06:56.076Z,99807.47
2023-04-24T02:09:23.031Z,99819.56
2023-04-24T02:11:51.252Z,99820.47
2023-04-24T02:14:19.009Z,99817.78
2023-04-24T02:16:47.050Z,99820.38
2023-04-24T02:19:14.068Z,99820.44
2023-04-24T02:21:41.043Z,99814.59
2023-04-24T02:24:09.770Z,99819.78
2023-04-24T02:26:36.800Z,99826.69
2023-04-24T02:29:03.795Z,99825.03
2023-04-24T02:31:30.953Z,99822.53
2023-04-24T02:33:58.075Z,99822.63
2023-04-24T02:36:25.136Z,99826.19
2023-04-24T02:38:52.186Z,99831.34
2023-04-24T02:41:19.240Z,99836.34
2023-04-24T02:43:46.366Z,99832.03
2023-04-24T02:46:13.424Z,99836.41
2023-04-24T02:48:40.513Z,99835.66
2023-04-24T02:51:07.966Z,99833.16
2023-04-24T02:53:35.172Z,99845.28
2023-04-24T02:56:03.323Z,99837.72
2023-04-24T02:58:30.335Z,99844.72
2023-04-24T03:00:57.469Z,99847.47
2023-04-24T03:03:25.226Z,99844.97
2023-04-24T03:05:52.537Z,99851.97
2023-04-24T03:08:19.506Z,99855.56
2023-04-24T03:10:48.196Z,99848.78
2023-04-24T03:13:17.148Z,99848.00
2023-04-24T03:15:44.419Z,99849.00
2023-04-24T03:18:11.696Z,99850.81
2023-04-24T03:20:40.393Z,99852.56
2023-04-24T03:23:08.254Z,99847.44
2023-04-24T03:25:36.741Z,99852.59
2023-04-24T03:28:04.183Z,99851.81
2023-04-24T03:30:39.830Z,99859.63
2023-04-24T03:33:08.189Z,99857.13
2023-04-24T03:35:39.024Z,99853.78
2023-04-24T03:38:09.994Z,99859.09
2023-04-24T03:40:42.890Z,99863.53
2023-04-24T03:43:42.333Z,99857.69
2023-04-24T03:46:10.591Z,99862.06
2023-04-24T03:48:42.576Z,99869.06
2023-04-24T03:51:11.162Z,99870.06
2023-04-24T03:53:41.119Z,99859.84
2023-04-24T03:56:09.548Z,99874.63
2023-04-24T03:58:36.588Z,99866.09
2023-04-24T04:01:03.921Z,99868.78
2023-04-24T04:04:00.644Z,99874.03
2023-04-24T04:06:29.619Z,99878.41
2023-04-24T04:08:58.338Z,99875.91
2023-04-24T04:11:25.564Z,99876.78
2023-04-24T04:13:52.745Z,99885.41
2023-04-24T04:16:22.227Z,99877.59
2023-04-24T04:18:52.135Z,99882.72
2023-04-24T04:21:19.587Z,99888.72
2023-04-24T04:23:47.920Z,99888.63
2023-04-24T04:26:22.284Z,99889.38
2023-04-24T04:29:18.457Z,99888.25
2023-04-24T04:31:47.513Z,99892.31
2023-04-24T04:34:15.601Z,99888.59
2023-04-24T04:36:44.012Z,99887.47
2023-04-24T04:39:34.149Z,99891.53
2023-04-24T04:42:11.618Z,99893.88
2023-04-24T04:44:42.817Z,99889.28
2023-04-24T04:47:15.092Z,99901.09
2023-04-24T04:49:44.323Z,99892.06
2023-04-24T04:52:21.600Z,99896.00
2023-04-24T04:54:53.211Z,99902.38
2023-04-24T04:57:21.724Z,99902.94
2023-04-24T04:59:48.890Z,99902.47
2023-04-24T05:02:26.693Z,99908.03
2023-04-24T05:04:54.047Z,99905.69
2023-04-24T05:07:21.372Z,99901.44
2023-04-24T05:09:52.686Z,99902.66
2023-04-24T05:12:20.393Z,99907.41
2023-04-24T05:14:52.044Z,99908.63
2023-04-24T05:17:19.617Z,99899.34
2023-04-24T05:19:47.518Z,99902.19
2023-04-24T05:22:15.729Z,99908.75
2023-04-24T05:24:49.258Z,99898.59
2023-04-24T05:27:42.386Z,99899.78
2023-04-24T05:30:15.271Z,99908.25
2023-04-24T05:32:42.477Z,99902.53
2023-04-24T05:35:09.644Z,99901.19
2023-04-24T05:37:37.240Z,99901.88
2023-04-24T05:40:06.316Z,99895.22
2023-04-24T05:42:33.564Z,99892.13
2023-04-24T05:45:00.726Z,99894.41
2023-04-24T05:47:27.958Z,99899.22
2023-04-24T05:49:55.621Z,99898.66
2023-04-24T05:52:22.972Z,99899.75
2023-04-24T05:54:50.773Z,99899.09
2023-04-24T05:57:22.554Z,99897.75
2023-04-24T06:00:00.249Z,99894.53
2023-04-24T06:02:28.896Z,99901.91
2023-04-24T06:04:56.596Z,99907.44
2023-04-24T06:07:25.310Z,99901.81
2023-04-24T06:09:52.515Z,99904.16
2023-04-24T06:12:19.816Z,99899.59
2023-04-24T06:14:57.969Z,99898.78
2023-04-24T06:17:33.552Z,99896.56
2023-04-24T06:20:00.635Z,99895.41
2023-04-24T06:22:27.754Z,99894.22
2023-04-24T06:24:54.673Z,99895.19
2023-04-24T06:27:21.799Z,99892.56
2023-04-24T06:29:55.312Z,99897.28
2023-04-24T06:32:24.192Z,99893.38
2023-04-24T06:34:52.968Z,99903.28
2023-04-24T06:37:21.601Z,99895.41
2023-04-24T06:39:48.707Z,99889.53
2023-04-24T06:42:15.881Z,99892.50
2023-04-24T06:44:44.614Z,99902.16
2023-04-24T06:47:11.777Z,99903.31
2023-04-24T06:49:38.822Z,99897.88
2023-04-24T06:52:05.996Z,99897.88
2023-04-24T06:54:33.277Z,99900.53
2023-04-24T06:57:01.922Z,99902.09
2023-04-24T06:59:29.315Z,99903.53
2023-04-24T07:01:57.028Z,99894.38
2023-04-24T07:04:26.272Z,99897.41
2023-04-24T07:06:55.503Z,99899.50
2023-04-24T07:09:24.776Z,99905.44
2023-04-24T07:11:52.691Z,99901.75
2023-04-24T07:14:19.725Z,99897.97
2023-04-24T07:16:46.838Z,99904.72
2023-04-24T07:19:14.303Z,99902.19
2023-04-24T07:21:41.391Z,99904.91
2023-04-24T07:24:12.033Z,99895.09
2023-04-24T07:26:40.295Z,99895.97
2023-04-24T07:29:07.900Z,99892.56
2023-04-24T07:31:35.100Z,99900.72
2023-04-24T07:34:02.429Z,99897.38
2023-04-24T07:36:29.556Z,99889.03
2023-04-24T07:38:57.753Z,99898.63
2023-04-24T07:41:25.456Z,99879.41
2023-04-24T07:43:54.736Z,99896.91
2023-04-24T07:46:22.115Z,99888.44
2023-04-24T07:48:58.520Z,99884.63
2023-04-24T07:51:29.363Z,99882.75
2023-04-24T07:53:56.400Z,99867.56
2023-04-24T07:56:23.708Z,99871.63
2023-04-24T07:58:50.760Z,99862.91
2023-04-24T08:01:17.914Z,99868.19
2023-04-24T08:03:45.215Z,99879.63
2023-04-24T08:06:12.480Z,99873.78
2023-04-24T08:08:39.462Z,99879.63
2023-04-24T08:11:06.439Z,99878.47
2023-04-24T08:13:33.496Z,99867.03
2023-04-24T08:16:00.611Z,99868.59
2023-04-24T08:18:27.698Z,99861.31
2023-04-24T08:20:54.730Z,99857.88
2023-04-24T08:23:21.904Z,99867.38
2023-04-24T08:25:49.633Z,99873.56
2023-04-24T08:28:21.089Z,99868.06
2023-04-24T08:30:48.834Z,99870.28
2023-04-24T08:33:16.226Z,99854.91
2023-04-24T14:49:24.854Z,99606.56
2023-04-24T14:51:51.923Z,99602.19
2023-04-24T14:54:18.848Z,99599.56
2023-04-24T14:56:46.041Z,99600.47
2023-04-24T14:59:13.145Z,99602.06
2023-04-24T15:01:40.130Z,99599.38
2023-04-24T15:04:07.501Z,99600.28
2023-04-24T15:06:34.644Z,99594.22
2023-04-24T15:09:01.693Z,99588.97
2023-04-24T15:11:29.056Z,99590.78
2023-04-24T15:13:57.043Z,99594.31
2023-04-24T15:16:25.047Z,99586.47
2023-04-24T15:18:52.362Z,99597.13
2023-04-24T15:21:19.423Z,99595.56
2023-04-24T15:23:46.604Z,99591.31
2023-04-24T15:26:14.343Z,99588.00
2023-04-24T15:28:41.401Z,99587.22
2023-04-24T15:31:08.378Z,99590.84
2023-04-24T15:33:35.368Z,99586.72
2023-04-24T15:36:02.510Z,99580.78
2023-04-24T15:38:29.521Z,99581.91
2023-04-24T15:40:56.480Z,99583.84
2023-04-24T15:43:23.652Z,99577.09
2023-04-24T15:45:51.281Z,99577.25
2023-04-24T15:48:18.378Z,99574.81
2023-04-24T15:50:45.518Z,99570.69
2023-04-24T15:53:12.726Z,99565.59
2023-04-24T15:55:39.944Z,99574.53
2023-04-24T15:58:06.900Z,99565.91
2023-04-24T16:00:37.200Z,99567.88
2023-04-24T16:03:04.375Z,99567.16
2023-04-24T16:05:32.148Z,99572.59
2023-04-24T16:07:59.259Z,99562.28
2023-04-24T16:10:26.784Z,99570.34
2023-04-24T16:12:54.664Z,99565.31
2023-04-24T16:15:21.824Z,99563.94
2023-04-24T16:17:49.805Z,99571.16
2023-04-24T16:20:16.872Z,99565.41
2023-04-24T16:22:43.826Z,99568.28
2023-04-24T16:25:11.359Z,99571.25
2023-04-24T16:27:38.614Z,99575.84
2023-04-24T16:30:06.353Z,99570.88
2023-04-24T16:32:34.616Z,99572.94
2023-04-24T16:35:01.565Z,99577.50
2023-04-24T16:37:31.294Z,99573.44
2023-04-24T16:39:58.475Z,99570.34
2023-04-24T16:42:25.619Z,99576.78
2023-04-24T16:44:52.684Z,99579.72
2023-04-24T16:47:20.359Z,99580.88
2023-04-24T16:49:47.502Z,99583.84
2023-04-24T16:52:14.485Z,99573.63
2023-04-24T16:54:41.714Z,99581.69
2023-04-24T16:57:08.698Z,99583.69
2023-04-24T16:59:35.841Z,99586.63
2023-04-24T17:02:03.006Z,99590.34
2023-04-24T17:04:30.369Z,99594.13
2023-04-24T17:06:57.684Z,99591.63
2023-04-24T17:09:24.756Z,99603.00
2023-04-24T17:11:51.888Z,99599.69
2023-04-24T17:14:19.069Z,99601.66
2023-04-24T17:16:46.314Z,99598.50
2023-04-24T17:19:13.414Z,99606.50
2023-04-24T17:21:40.737Z,99606.66
2023-04-24T17:24:08.021Z,99606.78
2023-04-24T17:26:35.213Z,99602.56
2023-04-24T17:29:02.312Z,99606.94
2023-04-24T17:31:29.503Z,99605.28
2023-04-24T17:33:56.625Z,99608.00
2023-04-24T17:36:23.629Z,99613.19
2023-04-24T17:38:51.189Z,99615.84
2023-04-24T17:41:18.420Z,99610.69
2023-04-24T17:43:45.853Z,99611.59
2023-04-24T17:46:13.389Z,99617.63
2023-04-24T17:48:40.594Z,99615.97
2023-04-24T17:51:08.433Z,99615.13
2023-04-24T17:53:35.501Z,99618.63
2023-04-24T17:56:03.992Z,99624.72
2023-04-24T17:58:31.409Z,99639.56
2023-04-24T18:00:58.441Z,99638.78
2023-04-24T18:03:25.564Z,99643.25
2023-04-24T18:05:52.750Z,99649.38
2023-04-24T18:08:19.793Z,99648.53
2023-04-24T18:10:46.920Z,99652.00
2023-04-24T18:13:13.978Z,99646.78
2023-04-24T18:15:43.340Z,99654.59
2023-04-24T18:18:11.310Z,99645.91
2023-04-24T18:20:38.559Z,99642.47
2023-04-24T18:23:05.755Z,99654.66
2023-04-24T18:25:32.961Z,99646.84
2023-04-24T18:28:00.014Z,99652.09
2023-04-24T18:30:28.302Z,99649.53
2023-04-24T18:32:55.481Z,99656.50
2023-04-24T18:35:23.066Z,99654.78
2023-04-24T18:37:50.687Z,99651.34
2023-04-24T18:40:17.899Z,99660.00
2023-04-24T18:42:45.180Z,99657.38
2023-04-24T18:45:14.707Z,99664.41
2023-04-24T18:47:43.674Z,99666.19
2023-04-24T18:50:11.364Z,99662.72
2023-04-24T18:52:38.549Z,99663.66
2023-04-24T18:55:07.075Z,99667.13
2023-04-24T18:57:34.871Z,99665.44
2023-04-24T19:00:02.059Z,99660.25
2023-04-24T19:02:34.856Z,99660.31
2023-04-24T19:05:02.797Z,99648.16
2023-04-24T19:07:33.813Z,99647.31
2023-04-24T19:10:00.781Z,99646.47
2023-04-24T19:12:27.749Z,99649.09
2023-04-24T19:14:56.184Z,99653.50
2023-04-24T19:17:25.205Z,99650.06
2023-04-24T19:19:52.449Z,99658.75
2023-04-24T19:22:20.747Z,99654.44
2023-04-24T19:24:47.792Z,99657.97
2023-04-24T19:27:14.933Z,99664.13
2023-04-24T19:29:42.243Z,99665.94
2023-04-24T19:32:09.484Z,99665.97
2023-04-24T19:34:38.387Z,99669.50
2023-04-24T19:37:08.234Z,99666.94
2023-04-24T19:39:35.398Z,99671.28
2023-04-24T19:42:07.098Z,99671.31
2023-04-24T19:44:34.841Z,99673.09
2023-04-24T19:47:01.937Z,99671.41
2023-04-24T19:49:29.030Z,99668.81
2023-04-24T19:51:56.061Z,99667.97
2023-04-24T19:54:23.514Z,99666.28
2023-04-24T19:56:50.630Z,99668.88
2023-04-24T19:59:17.740Z,99663.72
2023-04-24T20:01:44.830Z,99663.75
2023-04-24T20:04:12.172Z,99661.19
2023-04-24T20:06:39.317Z,99665.59
2023-04-24T20:09:06.403Z,99663.13
2023-04-24T20:11:34.032Z,99664.09
2023-04-24T20:14:03.923Z,99663.34
2023-04-24T20:16:31.438Z,99666.88
2023-04-24T20:18:58.887Z,99666.06
2023-04-24T20:21:26.720Z,99665.22
2023-04-24T20:23:53.789Z,99664.38
2023-04-24T20:26:21.748Z,99664.34
2023-04-24T20:28:49.172Z,99665.16
2023-04-24T20:31:16.579Z,99657.34
2023-04-24T20:33:45.550Z,99664.28
2023-04-24T20:36:12.555Z,99666.88
2023-04-24T20:38:39.503Z,99664.25
2023-04-24T20:41:08.450Z,99659.97
2023-04-24T20:43:35.500Z,99664.31
2023-04-24T20:46:02.777Z,99655.69
2023-04-24T20:48:29.835Z,99659.16
2023-04-24T20:50:57.019Z,99660.06
2023-04-24T20:53:24.267Z,99660.06
2023-04-24T20:55:51.369Z,99664.38
2023-04-24T20:58:22.223Z,99660.94
2023-04-24T21:00:49.697Z,99666.97
2023-04-24T21:03:17.161Z,99673.03
2023-04-24T21:05:44.360Z,99672.16
2023-04-24T21:08:11.788Z,99691.25
2023-04-24T21:10:38.816Z,99687.03
2023-04-24T21:13:05.976Z,99688.78
2023-04-24T21:15:33.484Z,99685.31
2023-04-24T21:18:00.774Z,99683.63
2023-04-24T21:20:27.834Z,99686.25
2023-04-24T21:22:54.757Z,99684.50
2023-04-24T21:25:21.765Z,99679.31
2023-04-24T21:27:48.793Z,99681.91
2023-04-24T21:30:15.835Z,99682.75
2023-04-24T21:32:43.120Z,99687.09
2023-04-24T21:35:10.384Z,99673.22
2023-04-24T21:37:39.370Z,99698.13
2023-04-24T21:40:07.868Z,99688.56
2023-04-24T21:42:35.075Z,99703.31
2023-04-24T21:45:02.273Z,99694.75
2023-04-24T21:47:32.254Z,99680.94
2023-04-24T21:49:59.387Z,99684.41
2023-04-24T21:52:26.350Z,99688.75
2023-04-24T21:54:53.530Z,99677.56
2023-04-24T21:57:20.842Z,99683.69
2023-04-24T21:59:47.882Z,99679.41
2023-04-24T22:02:14.994Z,99681.13
2023-04-24T22:04:43.110Z,99680.28
2023-04-24T22:07:10.351Z,99677.69
2023-04-24T22:09:37.450Z,99678.53
2023-04-24T22:12:05.123Z,99678.50
2023-04-24T22:14:32.405Z,99673.25
2023-04-24T22:16:59.545Z,99670.63
2023-04-24T22:19:28.255Z,99674.09
2023-04-24T22:21:55.350Z,99674.13
2023-04-24T22:24:22.397Z,99672.41
2023-04-24T22:26:49.922Z,99668.13
2023-04-24T22:29:17.016Z,99673.34
2023-04-24T22:31:45.212Z,99665.56
2023-04-24T22:34:12.318Z,99661.25
2023-04-24T22:36:39.544Z,99660.38
2023-04-24T22:39:07.413Z,99667.31
2023-04-24T22:41:34.641Z,99662.97
2023-04-24T22:44:01.519Z,99660.41
2023-04-24T22:46:28.713Z,99667.31
2023-04-24T22:48:58.502Z,99665.59
2023-04-24T22:51:26.136Z,99653.47
2023-04-24T22:53:54.618Z,99663.03
2023-04-24T22:56:21.668Z,99663.91
2023-04-24T22:58:48.632Z,99668.28
2023-04-24T23:01:15.762Z,99662.28
2023-04-24T23:03:43.588Z,99660.56
2023-04-24T23:06:10.744Z,99657.97
2023-04-24T23:08:37.777Z,99658.84
2023-04-24T23:11:04.808Z,99654.50
2023-04-24T23:13:31.821Z,99658.84
2023-04-24T23:15:58.815Z,99661.44
2023-04-24T23:18:26.100Z,99659.75
2023-04-24T23:20:53.084Z,99653.75
2023-04-24T23:23:20.213Z,99653.81
2023-04-24T23:25:47.266Z,99650.41
2023-04-24T23:28:14.382Z,99653.88
2023-04-24T23:30:41.343Z,99648.66
2023-04-24T23:33:08.649Z,99649.53
2023-04-24T23:35:36.265Z,99637.47
2023-04-24T23:38:03.287Z,99642.66
2023-04-24T23:40:30.723Z,99635.75
2023-04-24T23:43:06.889Z,99634.00
2023-04-24T23:45:35.708Z,99638.31
2023-04-24T23:48:04.162Z,99628.00
2023-04-24T23:50:31.312Z,99629.72
2023-04-24T23:52:58.974Z,99627.13
2023-04-24T23:55:26.119Z,99620.25
2023-04-24T23:57:53.072Z,99629.72
